sensor_id;sensor_type;location;lat;lon;timestamp;temperature;humidity
65369;HTU21D;51970;53.484;49.488;2023-01-24T00:02:14;-12.88;72.52
65369;HTU21D;51970;53.484;49.488;2023-01-24T00:04:40;-12.80;72.83
65369;HTU21D;51970;53.484;49.488;2023-01-24T00:07:06;-12.66;72.82
65369;HTU21D;51970;53.484;49.488;2023-01-24T00:09:32;-12.58;73.08
65369;HTU21D;51970;53.484;49.488;2023-01-24T00:11:58;-12.36;72.69
65369;HTU21D;51970;53.484;49.488;2023-01-24T00:14:24;-12.39;71.89
65369;HTU21D;51970;53.484;49.488;2023-01-24T00:16:50;-12.47;71.45
65369;HTU21D;51970;53.484;49.488;2023-01-24T00:19:16;-12.57;71.29
65369;HTU21D;51970;53.484;49.488;2023-01-24T00:21:45;-12.65;71.00
65369;HTU21D;51970;53.484;49.488;2023-01-24T00:24:11;-12.83;70.71
65369;HTU21D;51970;53.484;49.488;2023-01-24T00:26:37;-13.01;70.32
65369;HTU21D;51970;53.484;49.488;2023-01-24T00:29:03;-13.12;70.13
65369;HTU21D;51970;53.484;49.488;2023-01-24T00:31:30;-12.98;70.48
65369;HTU21D;51970;53.484;49.488;2023-01-24T00:33:56;-13.19;70.55
65369;HTU21D;51970;53.484;49.488;2023-01-24T00:36:22;-9.90;70.34
65369;HTU21D;51970;53.484;49.488;2023-01-24T00:38:48;-13.16;70.53
65369;HTU21D;51970;53.484;49.488;2023-01-24T00:41:14;-13.34;70.82
65369;HTU21D;51970;53.484;49.488;2023-01-24T00:43:40;-13.31;70.94
65369;HTU21D;51970;53.484;49.488;2023-01-24T00:46:07;-13.12;70.77
65369;HTU21D;51970;53.484;49.488;2023-01-24T00:48:34;-13.33;70.90
65369;HTU21D;51970;53.484;49.488;2023-01-24T00:51:00;-13.36;70.78
65369;HTU21D;51970;53.484;49.488;2023-01-24T00:53:26;-13.39;70.48
65369;HTU21D;51970;53.484;49.488;2023-01-24T00:55:53;-13.28;70.60
65369;HTU21D;51970;53.484;49.488;2023-01-24T00:58:21;-12.94;70.32
65369;HTU21D;51970;53.484;49.488;2023-01-24T01:00:47;-11.23;70.11
65369;HTU21D;51970;53.484;49.488;2023-01-24T01:03:16;-13.18;70.15
65369;HTU21D;51970;53.484;49.488;2023-01-24T01:05:43;-13.48;70.38
65369;HTU21D;51970;53.484;49.488;2023-01-24T01:08:09;-13.26;70.99
65369;HTU21D;51970;53.484;49.488;2023-01-24T01:10:36;-13.04;71.06
65369;HTU21D;51970;53.484;49.488;2023-01-24T01:13:03;-13.17;70.78
65369;HTU21D;51970;53.484;49.488;2023-01-24T01:15:31;-13.29;70.61
65369;HTU21D;51970;53.484;49.488;2023-01-24T01:17:58;-13.14;70.35
65369;HTU21D;51970;53.484;49.488;2023-01-24T01:20:24;-13.32;70.13
65369;HTU21D;51970;53.484;49.488;2023-01-24T01:22:50;-13.40;70.24
65369;HTU21D;51970;53.484;49.488;2023-01-24T01:25:16;-13.38;70.82
65369;HTU21D;51970;53.484;49.488;2023-01-24T01:27:43;-13.42;70.64
65369;HTU21D;51970;53.484;49.488;2023-01-24T01:30:09;-13.51;70.51
65369;HTU21D;51970;53.484;49.488;2023-01-24T01:32:35;-13.53;70.19
65369;HTU21D;51970;53.484;49.488;2023-01-24T01:35:01;-13.65;70.20
65369;HTU21D;51970;53.484;49.488;2023-01-24T01:37:28;-13.75;70.64
65369;HTU21D;51970;53.484;49.488;2023-01-24T01:39:54;-13.89;70.93
65369;HTU21D;51970;53.484;49.488;2023-01-24T01:42:20;-10.42;70.95
65369;HTU21D;51970;53.484;49.488;2023-01-24T01:44:50;-13.73;71.30
65369;HTU21D;51970;53.484;49.488;2023-01-24T01:47:32;-13.88;72.09
65369;HTU21D;51970;53.484;49.488;2023-01-24T01:52:29;-13.40;71.63
65369;HTU21D;51970;53.484;49.488;2023-01-24T01:55:01;-13.15;71.29
65369;HTU21D;51970;53.484;49.488;2023-01-24T01:57:30;-13.47;70.64
65369;HTU21D;51970;53.484;49.488;2023-01-24T02:00:11;-13.47;70.50
65369;HTU21D;51970;53.484;49.488;2023-01-24T02:02:40;-13.49;70.26
65369;HTU21D;51970;53.484;49.488;2023-01-24T02:05:10;-13.40;70.52
65369;HTU21D;51970;53.484;49.488;2023-01-24T02:07:59;-13.34;70.97
65369;HTU21D;51970;53.484;49.488;2023-01-24T02:10:27;-13.09;70.00
65369;HTU21D;51970;53.484;49.488;2023-01-24T02:13:17;-13.44;69.45
65369;HTU21D;51970;53.484;49.488;2023-01-24T02:15:43;-13.59;69.41
65369;HTU21D;51970;53.484;49.488;2023-01-24T02:18:36;-13.56;70.20
65369;HTU21D;51970;53.484;49.488;2023-01-24T02:21:11;-13.65;70.37
65369;HTU21D;51970;53.484;49.488;2023-01-24T02:23:47;-13.58;70.74
65369;HTU21D;51970;53.484;49.488;2023-01-24T02:26:27;-13.51;70.47
65369;HTU21D;51970;53.484;49.488;2023-01-24T02:29:07;-13.83;70.52
65369;HTU21D;51970;53.484;49.488;2023-01-24T02:32:06;-9.46;70.60
65369;HTU21D;51970;53.484;49.488;2023-01-24T02:34:32;-13.90;70.30
65369;HTU21D;51970;53.484;49.488;2023-01-24T02:37:01;-13.75;70.25
65369;HTU21D;51970;53.484;49.488;2023-01-24T02:39:31;-13.59;70.10
65369;HTU21D;51970;53.484;49.488;2023-01-24T02:42:02;-13.84;69.72
65369;HTU21D;51970;53.484;49.488;2023-01-24T02:44:40;-13.95;69.74
65369;HTU21D;51970;53.484;49.488;2023-01-24T02:47:07;-13.91;69.74
65369;HTU21D;51970;53.484;49.488;2023-01-24T02:49:34;-13.75;69.68
65369;HTU21D;51970;53.484;49.488;2023-01-24T02:52:00;-14.15;69.51
65369;HTU21D;51970;53.484;49.488;2023-01-24T02:54:44;-14.20;70.32
65369;HTU21D;51970;53.484;49.488;2023-01-24T02:57:10;-14.14;70.52
65369;HTU21D;51970;53.484;49.488;2023-01-24T02:59:55;-14.18;70.53
65369;HTU21D;51970;53.484;49.488;2023-01-24T03:02:21;-14.15;70.35
65369;HTU21D;51970;53.484;49.488;2023-01-24T03:04:47;-14.15;70.29
65369;HTU21D;51970;53.484;49.488;2023-01-24T03:07:13;-12.73;69.94
65369;HTU21D;51970;53.484;49.488;2023-01-24T03:09:39;-14.15;69.58
65369;HTU21D;51970;53.484;49.488;2023-01-24T03:12:14;-14.12;69.41
65369;HTU21D;51970;53.484;49.488;2023-01-24T03:14:58;-14.14;69.62
65369;HTU21D;51970;53.484;49.488;2023-01-24T03:17:43;-14.08;70.45
65369;HTU21D;51970;53.484;49.488;2023-01-24T03:20:28;-13.93;71.40
65369;HTU21D;51970;53.484;49.488;2023-01-24T03:23:13;-14.04;70.94
65369;HTU21D;51970;53.484;49.488;2023-01-24T03:25:58;-13.96;70.66
65369;HTU21D;51970;53.484;49.488;2023-01-24T03:28:43;-13.93;71.19
65369;HTU21D;51970;53.484;49.488;2023-01-24T03:31:27;-13.61;71.49
65369;HTU21D;51970;53.484;49.488;2023-01-24T03:34:13;-13.69;70.81
65369;HTU21D;51970;53.484;49.488;2023-01-24T03:36:58;-13.40;70.35
65369;HTU21D;51970;53.484;49.488;2023-01-24T03:39:24;-9.31;70.03
65369;HTU21D;51970;53.484;49.488;2023-01-24T03:42:09;-13.65;70.58
65369;HTU21D;51970;53.484;49.488;2023-01-24T03:44:34;-13.75;70.71
65369;HTU21D;51970;53.484;49.488;2023-01-24T03:47:01;-13.70;70.63
65369;HTU21D;51970;53.484;49.488;2023-01-24T03:49:27;-13.72;70.55
65369;HTU21D;51970;53.484;49.488;2023-01-24T03:52:11;-13.72;71.16
65369;HTU21D;51970;53.484;49.488;2023-01-24T03:55:12;-13.59;70.16
65369;HTU21D;51970;53.484;49.488;2023-01-24T03:57:38;-13.87;69.90
65369;HTU21D;51970;53.484;49.488;2023-01-24T04:00:05;-13.88;70.09
65369;HTU21D;51970;53.484;49.488;2023-01-24T04:02:31;-13.99;70.30
65369;HTU21D;51970;53.484;49.488;2023-01-24T04:04:57;-13.88;70.01
65369;HTU21D;51970;53.484;49.488;2023-01-24T04:07:38;-13.85;69.99
65369;HTU21D;51970;53.484;49.488;2023-01-24T04:10:05;-14.10;70.06
65369;HTU21D;51970;53.484;49.488;2023-01-24T04:12:32;-14.15;70.39
65369;HTU21D;51970;53.484;49.488;2023-01-24T04:14:58;-14.12;70.17
65369;HTU21D;51970;53.484;49.488;2023-01-24T04:17:24;-14.02;69.64
65369;HTU21D;51970;53.484;49.488;2023-01-24T04:19:50;-14.23;69.84
65369;HTU21D;51970;53.484;49.488;2023-01-24T04:22:16;-14.21;70.15
65369;HTU21D;51970;53.484;49.488;2023-01-24T04:24:44;-14.30;70.09
65369;HTU21D;51970;53.484;49.488;2023-01-24T04:27:10;-14.28;70.11
65369;HTU21D;51970;53.484;49.488;2023-01-24T04:29:37;-14.33;70.07
65369;HTU21D;51970;53.484;49.488;2023-01-24T04:32:03;-14.39;70.06
65369;HTU21D;51970;53.484;49.488;2023-01-24T04:34:29;-14.41;70.13
65369;HTU21D;51970;53.484;49.488;2023-01-24T04:36:55;-14.48;70.38
65369;HTU21D;51970;53.484;49.488;2023-01-24T04:39:21;-14.54;70.20
65369;HTU21D;51970;53.484;49.488;2023-01-24T04:41:49;-14.47;70.18
65369;HTU21D;51970;53.484;49.488;2023-01-24T04:44:15;-14.62;70.57
65369;HTU21D;51970;53.484;49.488;2023-01-24T04:46:41;-14.46;70.72
65369;HTU21D;51970;53.484;49.488;2023-01-24T04:49:07;-14.51;70.51
65369;HTU21D;51970;53.484;49.488;2023-01-24T04:51:33;-14.49;70.13
65369;HTU21D;51970;53.484;49.488;2023-01-24T04:53:59;-14.49;69.86
65369;HTU21D;51970;53.484;49.488;2023-01-24T04:56:25;-14.48;69.68
65369;HTU21D;51970;53.484;49.488;2023-01-24T04:58:54;-14.36;69.69
65369;HTU21D;51970;53.484;49.488;2023-01-24T05:01:20;-14.25;69.00
65369;HTU21D;51970;53.484;49.488;2023-01-24T05:03:46;-14.25;68.30
65369;HTU21D;51970;53.484;49.488;2023-01-24T05:06:12;-14.30;68.21
65369;HTU21D;51970;53.484;49.488;2023-01-24T05:08:38;-14.23;68.36
65369;HTU21D;51970;53.484;49.488;2023-01-24T05:11:04;-14.10;68.68
65369;HTU21D;51970;53.484;49.488;2023-01-24T05:13:30;-14.03;68.77
65369;HTU21D;51970;53.484;49.488;2023-01-24T05:15:56;-12.73;68.62
65369;HTU21D;51970;53.484;49.488;2023-01-24T05:18:23;-11.54;68.58
65369;HTU21D;51970;53.484;49.488;2023-01-24T05:20:49;-13.67;68.93
65369;HTU21D;51970;53.484;49.488;2023-01-24T05:23:15;-13.52;68.47
65369;HTU21D;51970;53.484;49.488;2023-01-24T05:25:41;-13.38;68.52
65369;HTU21D;51970;53.484;49.488;2023-01-24T05:28:07;-13.27;67.99
65369;HTU21D;51970;53.484;49.488;2023-01-24T05:30:33;-10.55;67.33
65369;HTU21D;51970;53.484;49.488;2023-01-24T05:32:59;-13.31;68.40
65369;HTU21D;51970;53.484;49.488;2023-01-24T05:35:25;-13.11;68.68
65369;HTU21D;51970;53.484;49.488;2023-01-24T05:37:51;-12.98;68.10
65369;HTU21D;51970;53.484;49.488;2023-01-24T05:40:18;-13.01;67.81
65369;HTU21D;51970;53.484;49.488;2023-01-24T05:42:44;-12.98;67.53
65369;HTU21D;51970;53.484;49.488;2023-01-24T05:45:10;-12.95;67.41
65369;HTU21D;51970;53.484;49.488;2023-01-24T05:47:37;-12.89;67.12
65369;HTU21D;51970;53.484;49.488;2023-01-24T05:50:08;-12.82;66.95
65369;HTU21D;51970;53.484;49.488;2023-01-24T05:52:34;-12.83;66.65
65369;HTU21D;51970;53.484;49.488;2023-01-24T05:55:00;-12.64;66.81
65369;HTU21D;51970;53.484;49.488;2023-01-24T05:57:27;-8.35;66.91
65369;HTU21D;51970;53.484;49.488;2023-01-24T05:59:53;-12.59;66.91
65369;HTU21D;51970;53.484;49.488;2023-01-24T06:02:19;-12.40;66.95
65369;HTU21D;51970;53.484;49.488;2023-01-24T06:04:45;-12.21;66.50
65369;HTU21D;51970;53.484;49.488;2023-01-24T06:07:11;-12.14;66.11
65369;HTU21D;51970;53.484;49.488;2023-01-24T06:09:38;-11.98;66.34
65369;HTU21D;51970;53.484;49.488;2023-01-24T06:12:08;-11.91;66.14
65369;HTU21D;51970;53.484;49.488;2023-01-24T06:14:34;-11.80;66.38
65369;HTU21D;51970;53.484;49.488;2023-01-24T06:17:05;-11.58;66.36
65369;HTU21D;51970;53.484;49.488;2023-01-24T06:20:10;-11.24;65.89
65369;HTU21D;51970;53.484;49.488;2023-01-24T06:22:50;-11.32;65.70
65369;HTU21D;51970;53.484;49.488;2023-01-24T06:25:23;-11.23;65.70
65369;HTU21D;51970;53.484;49.488;2023-01-24T06:27:51;-11.15;65.41
65369;HTU21D;51970;53.484;49.488;2023-01-24T06:30:18;-10.84;65.08
65369;HTU21D;51970;53.484;49.488;2023-01-24T06:38:03;-10.51;64.86
65369;HTU21D;51970;53.484;49.488;2023-01-24T06:40:30;-10.73;65.04
65369;HTU21D;51970;53.484;49.488;2023-01-24T06:43:05;-10.60;65.28
65369;HTU21D;51970;53.484;49.488;2023-01-24T06:45:33;-9.99;65.30
65369;HTU21D;51970;53.484;49.488;2023-01-24T06:48:01;-10.21;65.09
65369;HTU21D;51970;53.484;49.488;2023-01-24T06:50:29;-9.99;64.85
65369;HTU21D;51970;53.484;49.488;2023-01-24T06:52:58;-9.84;64.56
65369;HTU21D;51970;53.484;49.488;2023-01-24T06:55:24;-9.66;64.40
65369;HTU21D;51970;53.484;49.488;2023-01-24T06:57:58;-9.53;64.03
65369;HTU21D;51970;53.484;49.488;2023-01-24T07:00:25;-9.37;63.74
65369;HTU21D;51970;53.484;49.488;2023-01-24T07:05:25;-8.90;63.65
65369;HTU21D;51970;53.484;49.488;2023-01-24T07:07:52;-8.86;63.53
65369;HTU21D;51970;53.484;49.488;2023-01-24T07:10:25;-8.56;63.81
65369;HTU21D;51970;53.484;49.488;2023-01-24T07:12:55;-8.51;63.19
65369;HTU21D;51970;53.484;49.488;2023-01-24T07:15:21;-8.45;63.09
65369;HTU21D;51970;53.484;49.488;2023-01-24T07:17:50;-8.46;63.25
65369;HTU21D;51970;53.484;49.488;2023-01-24T07:20:17;-8.37;63.34
65369;HTU21D;51970;53.484;49.488;2023-01-24T07:22:43;-8.42;63.27
65369;HTU21D;51970;53.484;49.488;2023-01-24T07:25:18;-7.80;63.17
65369;HTU21D;51970;53.484;49.488;2023-01-24T07:27:45;-8.44;63.02
65369;HTU21D;51970;53.484;49.488;2023-01-24T07:30:14;-8.42;63.05
65369;HTU21D;51970;53.484;49.488;2023-01-24T07:32:41;-8.34;62.86
65369;HTU21D;51970;53.484;49.488;2023-01-24T07:35:07;-8.36;62.81
65369;HTU21D;51970;53.484;49.488;2023-01-24T07:37:34;-8.29;62.82
65369;HTU21D;51970;53.484;49.488;2023-01-24T07:40:00;-8.24;62.82
65369;HTU21D;51970;53.484;49.488;2023-01-24T07:42:26;-8.18;62.72
65369;HTU21D;51970;53.484;49.488;2023-01-24T07:44:52;-8.15;62.73
65369;HTU21D;51970;53.484;49.488;2023-01-24T07:47:20;-8.09;62.68
65369;HTU21D;51970;53.484;49.488;2023-01-24T07:49:46;-8.11;62.75
65369;HTU21D;51970;53.484;49.488;2023-01-24T07:52:12;-8.12;62.88
65369;HTU21D;51970;53.484;49.488;2023-01-24T07:54:38;-8.12;62.89
65369;HTU21D;51970;53.484;49.488;2023-01-24T07:57:03;-8.06;62.88
65369;HTU21D;51970;53.484;49.488;2023-01-24T07:59:30;-7.94;62.59
65369;HTU21D;51970;53.484;49.488;2023-01-24T08:01:56;-7.93;62.13
65369;HTU21D;51970;53.484;49.488;2023-01-24T08:04:21;-8.06;62.20
65369;HTU21D;51970;53.484;49.488;2023-01-24T08:06:48;-8.13;62.28
65369;HTU21D;51970;53.484;49.488;2023-01-24T08:09:32;-7.81;62.25
65369;HTU21D;51970;53.484;49.488;2023-01-24T08:11:58;-7.99;62.39
65369;HTU21D;51970;53.484;49.488;2023-01-24T08:14:24;-8.06;62.57
65369;HTU21D;51970;53.484;49.488;2023-01-24T08:16:50;-8.06;62.57
65369;HTU21D;51970;53.484;49.488;2023-01-24T08:19:16;-7.94;62.69
65369;HTU21D;51970;53.484;49.488;2023-01-24T08:21:45;-7.39;62.44
65369;HTU21D;51970;53.484;49.488;2023-01-24T08:24:13;-7.68;61.82
65369;HTU21D;51970;53.484;49.488;2023-01-24T08:26:39;-7.66;61.73
65369;HTU21D;51970;53.484;49.488;2023-01-24T08:29:05;-7.55;61.62
65369;HTU21D;51970;53.484;49.488;2023-01-24T08:31:32;-7.49;61.60
65369;HTU21D;51970;53.484;49.488;2023-01-24T08:33:58;-7.27;61.55
65369;HTU21D;51970;53.484;49.488;2023-01-24T08:36:24;-7.31;61.24
65369;HTU21D;51970;53.484;49.488;2023-01-24T08:38:50;-7.24;61.23
65369;HTU21D;51970;53.484;49.488;2023-01-24T08:41:16;-6.97;61.05
65369;HTU21D;51970;53.484;49.488;2023-01-24T08:43:42;-7.06;60.90
65369;HTU21D;51970;53.484;49.488;2023-01-24T08:46:08;-6.71;60.77
65369;HTU21D;51970;53.484;49.488;2023-01-24T08:48:37;-6.39;60.39
65369;HTU21D;51970;53.484;49.488;2023-01-24T08:51:04;-6.83;60.53
65369;HTU21D;51970;53.484;49.488;2023-01-24T08:53:31;-6.66;60.34
65369;HTU21D;51970;53.484;49.488;2023-01-24T08:55:58;-6.85;60.06
65369;HTU21D;51970;53.484;49.488;2023-01-24T08:58:24;-6.90;60.04
65369;HTU21D;51970;53.484;49.488;2023-01-24T09:00:50;-6.91;60.31
65369;HTU21D;51970;53.484;49.488;2023-01-24T09:03:18;-6.82;60.60
65369;HTU21D;51970;53.484;49.488;2023-01-24T09:05:45;-6.83;60.60
65369;HTU21D;51970;53.484;49.488;2023-01-24T09:08:11;-6.75;60.48
65369;HTU21D;51970;53.484;49.488;2023-01-24T09:10:39;-6.71;60.39
65369;HTU21D;51970;53.484;49.488;2023-01-24T09:13:06;-6.73;60.30
65369;HTU21D;51970;53.484;49.488;2023-01-24T09:15:31;-6.77;60.25
65369;HTU21D;51970;53.484;49.488;2023-01-24T09:18:01;-6.73;60.35
65369;HTU21D;51970;53.484;49.488;2023-01-24T09:20:29;-6.82;60.42
65369;HTU21D;51970;53.484;49.488;2023-01-24T09:22:58;-6.80;60.35
65369;HTU21D;51970;53.484;49.488;2023-01-24T09:25:24;-6.87;60.57
65369;HTU21D;51970;53.484;49.488;2023-01-24T09:27:55;-6.82;60.83
65369;HTU21D;51970;53.484;49.488;2023-01-24T09:30:22;-6.76;60.65
65369;HTU21D;51970;53.484;49.488;2023-01-24T09:32:48;-6.76;60.67
65369;HTU21D;51970;53.484;49.488;2023-01-24T09:35:15;-6.83;60.83
65369;HTU21D;51970;53.484;49.488;2023-01-24T09:37:41;-6.74;60.88
65369;HTU21D;51970;53.484;49.488;2023-01-24T09:40:42;-6.60;60.53
65369;HTU21D;51970;53.484;49.488;2023-01-24T09:46:31;-6.31;59.93
65369;HTU21D;51970;53.484;49.488;2023-01-24T09:51:36;-6.00;59.43
65369;HTU21D;51970;53.484;49.488;2023-01-24T09:54:05;-5.92;59.19
65369;HTU21D;51970;53.484;49.488;2023-01-24T09:56:37;-5.90;59.09
65369;HTU21D;51970;53.484;49.488;2023-01-24T09:59:33;-5.81;59.06
65369;HTU21D;51970;53.484;49.488;2023-01-24T10:02:25;-5.86;59.22
65369;HTU21D;51970;53.484;49.488;2023-01-24T10:04:59;-5.85;59.51
65369;HTU21D;51970;53.484;49.488;2023-01-24T10:12:56;-6.00;59.77
65369;HTU21D;51970;53.484;49.488;2023-01-24T10:24:08;-5.83;59.84
65369;HTU21D;51970;53.484;49.488;2023-01-24T10:26:48;-6.03;59.99
65369;HTU21D;51970;53.484;49.488;2023-01-24T10:29:24;-5.56;60.52
65369;HTU21D;51970;53.484;49.488;2023-01-24T10:37:01;-6.00;61.00
65369;HTU21D;51970;53.484;49.488;2023-01-24T10:39:30;-6.03;61.24
65369;HTU21D;51970;53.484;49.488;2023-01-24T10:41:57;-5.93;61.38
65369;HTU21D;51970;53.484;49.488;2023-01-24T10:44:28;-5.94;61.36
65369;HTU21D;51970;53.484;49.488;2023-01-24T10:49:29;-5.92;61.35
65369;HTU21D;51970;53.484;49.488;2023-01-24T10:52:20;-5.86;61.28
65369;HTU21D;51970;53.484;49.488;2023-01-24T10:54:56;-5.79;60.95
65369;HTU21D;51970;53.484;49.488;2023-01-24T10:57:52;-5.71;60.57
65369;HTU21D;51970;53.484;49.488;2023-01-24T11:00:27;-5.70;60.24
65369;HTU21D;51970;53.484;49.488;2023-01-24T11:02:57;-5.75;60.41
65369;HTU21D;51970;53.484;49.488;2023-01-24T11:05:24;-5.85;60.57
65369;HTU21D;51970;53.484;49.488;2023-01-24T11:07:59;-5.93;60.44
65369;HTU21D;51970;53.484;49.488;2023-01-24T11:10:35;-6.01;60.80
65369;HTU21D;51970;53.484;49.488;2023-01-24T11:13:24;-6.07;60.98
65369;HTU21D;51970;53.484;49.488;2023-01-24T11:15:54;-6.18;61.21
65369;HTU21D;51970;53.484;49.488;2023-01-24T11:18:24;-6.07;61.30
65369;HTU21D;51970;53.484;49.488;2023-01-24T11:21:06;-6.03;61.38
65369;HTU21D;51970;53.484;49.488;2023-01-24T11:23:33;-5.96;61.43
65369;HTU21D;51970;53.484;49.488;2023-01-24T11:26:02;-5.77;61.48
65369;HTU21D;51970;53.484;49.488;2023-01-24T11:28:32;-6.12;61.85
65369;HTU21D;51970;53.484;49.488;2023-01-24T11:31:04;-6.13;61.81
65369;HTU21D;51970;53.484;49.488;2023-01-24T11:36:30;-6.04;61.45
65369;HTU21D;51970;53.484;49.488;2023-01-24T11:39:30;-6.03;61.62
65369;HTU21D;51970;53.484;49.488;2023-01-24T11:42:14;-5.99;61.64
65369;HTU21D;51970;53.484;49.488;2023-01-24T11:47:18;-5.91;61.62
65369;HTU21D;51970;53.484;49.488;2023-01-24T12:01:14;-5.85;61.27
65369;HTU21D;51970;53.484;49.488;2023-01-24T12:03:48;-5.90;61.38
65369;HTU21D;51970;53.484;49.488;2023-01-24T12:09:23;-5.99;61.79
65369;HTU21D;51970;53.484;49.488;2023-01-24T12:12:20;-5.92;61.76
65369;HTU21D;51970;53.484;49.488;2023-01-24T12:17:22;-6.13;62.13
65369;HTU21D;51970;53.484;49.488;2023-01-24T12:22:41;-6.28;62.45
65369;HTU21D;51970;53.484;49.488;2023-01-24T12:27:37;-6.60;63.21
65369;HTU21D;51970;53.484;49.488;2023-01-24T12:30:06;-6.66;63.39
65369;HTU21D;51970;53.484;49.488;2023-01-24T12:32:40;-6.87;63.89
65369;HTU21D;51970;53.484;49.488;2023-01-24T12:35:38;-6.97;64.47
65369;HTU21D;51970;53.484;49.488;2023-01-24T12:38:41;-7.15;65.00
65369;HTU21D;51970;53.484;49.488;2023-01-24T12:43:54;-7.33;65.72
65369;HTU21D;51970;53.484;49.488;2023-01-24T12:50:36;-7.52;66.38
65369;HTU21D;51970;53.484;49.488;2023-01-24T12:56:03;-7.76;67.12
65369;HTU21D;51970;53.484;49.488;2023-01-24T12:58:32;-7.79;67.22
65369;HTU21D;51970;53.484;49.488;2023-01-24T13:04:00;-7.87;67.09
65369;HTU21D;51970;53.484;49.488;2023-01-24T13:11:46;-8.18;68.02
65369;HTU21D;51970;53.484;49.488;2023-01-24T13:14:33;-8.06;68.07
65369;HTU21D;51970;53.484;49.488;2023-01-24T13:28:37;-8.05;68.66
65369;HTU21D;51970;53.484;49.488;2023-01-24T13:31:16;-7.85;68.06
65369;HTU21D;51970;53.484;49.488;2023-01-24T13:33:51;-8.28;67.98
65369;HTU21D;51970;53.484;49.488;2023-01-24T13:36:28;-8.28;68.68
65369;HTU21D;51970;53.484;49.488;2023-01-24T13:38:56;-8.33;68.98
65369;HTU21D;51970;53.484;49.488;2023-01-24T13:43:58;-8.37;68.90
65369;HTU21D;51970;53.484;49.488;2023-01-24T13:51:58;-8.38;68.97
65369;HTU21D;51970;53.484;49.488;2023-01-24T13:54:40;-8.39;68.93
65369;HTU21D;51970;53.484;49.488;2023-01-24T13:57:23;-8.49;68.58
65369;HTU21D;51970;53.484;49.488;2023-01-24T13:59:58;-8.55;68.75
65369;HTU21D;51970;53.484;49.488;2023-01-24T14:02:33;-8.54;68.13
65369;HTU21D;51970;53.484;49.488;2023-01-24T14:05:00;-8.62;68.27
65369;HTU21D;51970;53.484;49.488;2023-01-24T14:07:28;-8.72;68.36
65369;HTU21D;51970;53.484;49.488;2023-01-24T14:10:00;-8.68;68.83
65369;HTU21D;51970;53.484;49.488;2023-01-24T14:12:33;-8.66;69.06
65369;HTU21D;51970;53.484;49.488;2023-01-24T14:15:04;-8.55;69.37
65369;HTU21D;51970;53.484;49.488;2023-01-24T14:20:41;-8.73;68.83
65369;HTU21D;51970;53.484;49.488;2023-01-24T14:23:20;-8.72;69.03
65369;HTU21D;51970;53.484;49.488;2023-01-24T14:25:54;-8.84;69.57
65369;HTU21D;51970;53.484;49.488;2023-01-24T14:28:30;-8.85;69.71
65369;HTU21D;51970;53.484;49.488;2023-01-24T14:31:03;-8.63;69.10
65369;HTU21D;51970;53.484;49.488;2023-01-24T14:36:36;-8.86;69.16
65369;HTU21D;51970;53.484;49.488;2023-01-24T14:41:42;-9.00;69.04
65369;HTU21D;51970;53.484;49.488;2023-01-24T14:44:26;-8.93;69.80
65369;HTU21D;51970;53.484;49.488;2023-01-24T14:47:00;-8.85;69.90
65369;HTU21D;51970;53.484;49.488;2023-01-24T14:49:35;-8.92;70.18
65369;HTU21D;51970;53.484;49.488;2023-01-24T14:52:17;-8.77;70.18
65369;HTU21D;51970;53.484;49.488;2023-01-24T14:54:46;-8.92;69.95
65369;HTU21D;51970;53.484;49.488;2023-01-24T14:57:20;-8.98;69.41
65369;HTU21D;51970;53.484;49.488;2023-01-24T15:02:26;-9.08;69.36
65369;HTU21D;51970;53.484;49.488;2023-01-24T15:04:52;-8.90;68.89
65369;HTU21D;51970;53.484;49.488;2023-01-24T15:07:18;-9.23;69.49
65369;HTU21D;51970;53.484;49.488;2023-01-24T15:09:45;-9.28;69.99
65369;HTU21D;51970;53.484;49.488;2023-01-24T15:12:24;-9.33;70.45
65369;HTU21D;51970;53.484;49.488;2023-01-24T15:14:52;-9.23;70.57
65369;HTU21D;51970;53.484;49.488;2023-01-24T15:17:27;-9.23;70.00
65369;HTU21D;51970;53.484;49.488;2023-01-24T15:19:59;-9.33;70.55
65369;HTU21D;51970;53.484;49.488;2023-01-24T15:22:35;-9.33;69.99
65369;HTU21D;51970;53.484;49.488;2023-01-24T15:25:02;-9.40;69.53
65369;HTU21D;51970;53.484;49.488;2023-01-24T15:38:14;-9.42;70.56
65369;HTU21D;51970;53.484;49.488;2023-01-24T15:40:56;-6.62;70.82
65369;HTU21D;51970;53.484;49.488;2023-01-24T15:43:46;-9.44;70.46
65369;HTU21D;51970;53.484;49.488;2023-01-24T15:46:37;-9.43;70.66
65369;HTU21D;51970;53.484;49.488;2023-01-24T15:49:29;-9.24;71.04
65369;HTU21D;51970;53.484;49.488;2023-01-24T15:52:00;-9.41;71.14
65369;HTU21D;51970;53.484;49.488;2023-01-24T15:54:27;-9.53;70.94
65369;HTU21D;51970;53.484;49.488;2023-01-24T15:56:57;-9.55;71.17
65369;HTU21D;51970;53.484;49.488;2023-01-24T15:59:23;-9.55;71.19
65369;HTU21D;51970;53.484;49.488;2023-01-24T16:01:50;-9.49;71.00
65369;HTU21D;51970;53.484;49.488;2023-01-24T16:04:17;-9.49;70.52
65369;HTU21D;51970;53.484;49.488;2023-01-24T16:06:43;-9.43;70.80
65369;HTU21D;51970;53.484;49.488;2023-01-24T16:09:10;-8.97;70.63
65369;HTU21D;51970;53.484;49.488;2023-01-24T16:11:40;-8.87;69.61
65369;HTU21D;51970;53.484;49.488;2023-01-24T16:14:13;-8.68;69.01
65369;HTU21D;51970;53.484;49.488;2023-01-24T16:16:43;-8.51;68.28
65369;HTU21D;51970;53.484;49.488;2023-01-24T16:19:19;-8.37;68.06
65369;HTU21D;51970;53.484;49.488;2023-01-24T16:21:47;-8.22;67.58
65369;HTU21D;51970;53.484;49.488;2023-01-24T16:24:16;-8.16;67.33
65369;HTU21D;51970;53.484;49.488;2023-01-24T16:26:48;-8.06;67.42
65369;HTU21D;51970;53.484;49.488;2023-01-24T16:29:21;-8.22;67.28
65369;HTU21D;51970;53.484;49.488;2023-01-24T16:31:48;-8.19;67.07
65369;HTU21D;51970;53.484;49.488;2023-01-24T16:34:17;-8.18;66.82
65369;HTU21D;51970;53.484;49.488;2023-01-24T16:36:44;-8.24;66.69
65369;HTU21D;51970;53.484;49.488;2023-01-24T16:39:18;-8.27;66.88
65369;HTU21D;51970;53.484;49.488;2023-01-24T16:41:48;-8.31;66.84
65369;HTU21D;51970;53.484;49.488;2023-01-24T16:44:15;-8.42;66.90
65369;HTU21D;51970;53.484;49.488;2023-01-24T16:46:48;-8.37;67.27
65369;HTU21D;51970;53.484;49.488;2023-01-24T16:49:14;-8.59;67.43
65369;HTU21D;51970;53.484;49.488;2023-01-24T16:51:43;-8.72;67.30
65369;HTU21D;51970;53.484;49.488;2023-01-24T16:54:10;-8.87;67.91
65369;HTU21D;51970;53.484;49.488;2023-01-24T16:56:36;-5.33;68.39
65369;HTU21D;51970;53.484;49.488;2023-01-24T16:59:02;-8.74;68.05
65369;HTU21D;51970;53.484;49.488;2023-01-24T17:01:30;-8.73;68.13
65369;HTU21D;51970;53.484;49.488;2023-01-24T17:03:56;-8.73;68.21
65369;HTU21D;51970;53.484;49.488;2023-01-24T17:06:22;-8.71;68.15
65369;HTU21D;51970;53.484;49.488;2023-01-24T17:08:49;-8.73;68.16
65369;HTU21D;51970;53.484;49.488;2023-01-24T17:11:22;-8.71;68.11
65369;HTU21D;51970;53.484;49.488;2023-01-24T17:13:49;-8.68;68.46
65369;HTU21D;51970;53.484;49.488;2023-01-24T17:16:15;-8.41;68.42
65369;HTU21D;51970;53.484;49.488;2023-01-24T17:18:42;-8.43;68.04
65369;HTU21D;51970;53.484;49.488;2023-01-24T17:21:13;-8.35;67.96
65369;HTU21D;51970;53.484;49.488;2023-01-24T17:23:39;-8.48;68.04